Time;durP1;ratioP1;P1;durP2;ratioP2;P2;SDS_P1;SDS_P2;PMS_P1;PMS_P2;Temp;Humidity;BMP_temperature;BMP_pressure;BME280_temperature;BME280_humidity;BME280_pressure;Samples;Min_cycle;Max_cycle;Signal;HPM_P1;HPM_P2
2022/07/31 00:01:50;;;;;;;;;;;;;;;;;;5032443;28;19916;-79
2022/07/31 00:04:15;;;;;;;;;;;;;;;;;;5016047;28;19920;-78
2022/07/31 00:06:42;;;;;;;;;;;;;;;;;;5034005;28;19952;-78
2022/07/31 00:09:07;;;;;;;;;;;;;;;;;;5034148;28;19924;-78
2022/07/31 00:11:33;;;;;;;;;;;;;;;;;;5033818;28;19921;-78
2022/07/31 00:13:58;;;;;;;;;;;;;;;;;;5033994;28;19921;-78
2022/07/31 00:16:23;;;;;;;;;;;;;;;;;;5032477;28;19927;-78
2022/07/31 00:18:49;;;;;;;;;;;;;;;;;;5032339;28;19952;-78
2022/07/31 00:21:14;;;;;;;;;;;;;;;;;;5032302;28;20364;-78
2022/07/31 00:23:39;;;;;;;;;;;;;;;;;;5032247;28;19925;-78
2022/07/31 00:26:05;;;;;;;;;;;;;;;;;;5032410;28;19928;-78
2022/07/31 00:28:30;;;;;;;;;;;;;;;;;;5032233;28;19921;-78
2022/07/31 00:30:56;;;;;;;;;;;;;;;;;;5032297;28;19972;-78
2022/07/31 00:33:21;;;;;;;;;;;;;;;;;;5034209;28;20390;-78
2022/07/31 00:35:46;;;;;;;;;;;;;;;;;;5037429;28;19924;-78
2022/07/31 00:38:11;;;;;;;;;;;;;;;;;;5036162;28;19921;-78
2022/07/31 00:40:44;;;;;;;;;;;;;;;;;;5037345;28;19952;-78
2022/07/31 00:43:09;;;;;;;;;;;;;;;;;;5036154;28;19917;-78
2022/07/31 00:45:34;;;;;;;;;;;;;;;;;;5037258;28;19924;-78
2022/07/31 00:48:02;;;;;;;;;;;;;;;;;;5037325;28;19917;-78
2022/07/31 00:50:27;;;;;;;;;;;;;;;;;;5035737;28;20379;-78
2022/07/31 00:52:53;;;;;;;;;;;;;;;;;;5037353;28;19924;-77
2022/07/31 00:55:18;;;;;;;;;;;;;;;;;;5035944;28;19928;-77
2022/07/31 00:57:43;;;;;;;;;;;;;;;;;;5037279;28;20417;-78
2022/07/31 01:00:09;;;;;;;;;;;;;;;;;;5035974;28;19925;-78
2022/07/31 01:02:34;;;;;;;;;;;;;;;;;;5036858;28;19924;-78
2022/07/31 01:05:00;;;;;;;;;;;;;;;;;;5019054;28;19913;-78
2022/07/31 01:07:25;;;;;;;;;;;;;;;;;;5037129;28;19936;-78
2022/07/31 01:09:52;;;;;;;;;;;;;;;;;;5035458;28;20283;-78
2022/07/31 01:12:21;;;;;;;;;;;;;;;;;;5019180;28;19967;-78
2022/07/31 01:14:47;;;;;;;;;;;;;;;;;;5035268;28;19917;-78
2022/07/31 01:17:13;;;;;;;;;;;;;;;;;;5035435;28;20286;-78
2022/07/31 01:19:40;;;;;;;;;;;;;;;;;;5018814;28;20015;-78
2022/07/31 01:22:24;;;;;;;;;;;;;;;;;;5036168;28;20295;-78
2022/07/31 01:24:50;;;;;;;;;;;;;;;;;;5036851;28;19921;-79
2022/07/31 01:27:25;;;;;;;;;;;;;;;;;;5036625;28;19964;-78
2022/07/31 01:29:52;;;;;;;;;;;;;;;;;;5035619;28;19921;-78
2022/07/31 01:32:20;;;;;;;;;;;;;;;;;;5035354;28;19921;-78
2022/07/31 01:34:48;;;;;;;;;;;;;;;;;;5018447;28;20412;-78
2022/07/31 01:37:19;;;;;;;;;;;;;;;;;;5035347;28;20276;-78
2022/07/31 01:39:54;;;;;;;;;;;;;;;;;;5036283;28;19917;-78
2022/07/31 01:42:20;;;;;;;;;;;;;;;;;;5036178;28;19924;-78
2022/07/31 01:44:47;;;;;;;;;;;;;;;;;;5017843;28;20394;-78
2022/07/31 01:47:14;;;;;;;;;;;;;;;;;;5034998;28;19913;-78
2022/07/31 01:49:39;;;;;;;;;;;;;;;;;;5035403;28;19939;-78
2022/07/31 01:52:05;;;;;;;;;;;;;;;;;;5034653;28;20360;-78
2022/07/31 01:54:30;;;;;;;;;;;;;;;;;;5018128;28;19979;-78
2022/07/31 01:56:58;;;;;;;;;;;;;;;;;;5034772;28;20063;-78
2022/07/31 01:59:23;;;;;;;;;;;;;;;;;;5034839;28;20000;-78
2022/07/31 02:01:48;;;;;;;;;;;;;;;;;;5034648;28;20406;-78
2022/07/31 02:04:14;;;;;;;;;;;;;;;;;;5018827;28;20244;-78
2022/07/31 02:06:39;;;;;;;;;;;;;;;;;;5034767;28;19917;-78
2022/07/31 02:09:04;;;;;;;;;;;;;;;;;;5018000;28;19917;-78
2022/07/31 02:11:30;;;;;;;;;;;;;;;;;;5017712;28;20010;-78
2022/07/31 02:13:55;;;;;;;;;;;;;;;;;;5034795;28;20291;-79
2022/07/31 02:16:20;;;;;;;;;;;;;;;;;;5034704;28;19917;-78
2022/07/31 02:18:49;;;;;;;;;;;;;;;;;;5034277;28;19923;-78
2022/07/31 02:21:14;;;;;;;;;;;;;;;;;;5018344;28;20344;-77
2022/07/31 02:23:40;;;;;;;;;;;;;;;;;;5034445;28;19964;-79
2022/07/31 02:26:05;;;;;;;;;;;;;;;;;;5017669;28;19921;-78
2022/07/31 02:28:31;;;;;;;;;;;;;;;;;;5034106;28;20388;-78
2022/07/31 02:30:56;;;;;;;;;;;;;;;;;;5033857;28;20024;-78
2022/07/31 02:33:23;;;;;;;;;;;;;;;;;;5017563;28;20007;-78
2022/07/31 02:35:48;;;;;;;;;;;;;;;;;;5034102;28;20423;-78
2022/07/31 02:38:14;;;;;;;;;;;;;;;;;;5033943;28;20008;-78
2022/07/31 02:40:39;;;;;;;;;;;;;;;;;;5033905;28;19921;-78
2022/07/31 02:43:04;;;;;;;;;;;;;;;;;;5033838;28;19949;-78
2022/07/31 02:45:30;;;;;;;;;;;;;;;;;;5034951;28;19971;-78
2022/07/31 02:47:55;;;;;;;;;;;;;;;;;;5017266;28;19917;-78
2022/07/31 02:50:21;;;;;;;;;;;;;;;;;;5033185;28;19917;-78
2022/07/31 02:52:46;;;;;;;;;;;;;;;;;;5033640;28;19913;-78
2022/07/31 02:55:11;;;;;;;;;;;;;;;;;;5035125;28;19992;-78
2022/07/31 02:57:36;;;;;;;;;;;;;;;;;;5034155;28;20391;-78
2022/07/31 03:00:25;;;;;;;;;;;;;;;;;;5033490;28;19913;-78
2022/07/31 03:02:51;;;;;;;;;;;;;;;;;;5033532;28;19947;-78
2022/07/31 03:05:17;;;;;;;;;;;;;;;;;;5016929;28;19913;-78
2022/07/31 03:07:42;;;;;;;;;;;;;;;;;;5034516;28;19917;-78
2022/07/31 03:10:09;;;;;;;;;;;;;;;;;;5033326;28;20004;-78
2022/07/31 03:12:36;;;;;;;;;;;;;;;;;;5033872;28;20327;-78
2022/07/31 03:15:02;;;;;;;;;;;;;;;;;;5033181;28;19971;-78
2022/07/31 03:17:27;;;;;;;;;;;;;;;;;;5016674;28;19913;-78
2022/07/31 03:19:52;;;;;;;;;;;;;;;;;;5033194;28;19923;-78
2022/07/31 03:22:17;;;;;;;;;;;;;;;;;;5033070;28;20326;-78
2022/07/31 03:24:43;;;;;;;;;;;;;;;;;;5033113;28;20007;-78
2022/07/31 03:27:08;;;;;;;;;;;;;;;;;;5034281;28;19924;-78
2022/07/31 03:29:39;;;;;;;;;;;;;;;;;;5034054;28;19925;-78
2022/07/31 03:32:05;;;;;;;;;;;;;;;;;;5032905;28;20363;-78
2022/07/31 03:34:30;;;;;;;;;;;;;;;;;;5032751;28;19963;-78
2022/07/31 03:36:56;;;;;;;;;;;;;;;;;;5034105;28;19963;-78
2022/07/31 03:39:21;;;;;;;;;;;;;;;;;;5032698;28;19921;-78
2022/07/31 03:41:46;;;;;;;;;;;;;;;;;;5032914;28;19924;-78
2022/07/31 03:44:11;;;;;;;;;;;;;;;;;;5033343;28;19917;-78
2022/07/31 03:46:37;;;;;;;;;;;;;;;;;;5033821;28;19940;-78
2022/07/31 03:49:02;;;;;;;;;;;;;;;;;;5032991;28;19913;-79
2022/07/31 03:51:27;;;;;;;;;;;;;;;;;;5032548;28;19923;-77
2022/07/31 03:53:53;;;;;;;;;;;;;;;;;;5032592;28;19927;-78
2022/07/31 03:56:18;;;;;;;;;;;;;;;;;;5033890;28;19939;-78
2022/07/31 03:58:44;;;;;;;;;;;;;;;;;;5033907;28;19925;-78
2022/07/31 04:01:09;;;;;;;;;;;;;;;;;;5032441;28;20443;-78
2022/07/31 04:03:34;;;;;;;;;;;;;;;;;;5032485;28;19913;-78
2022/07/31 04:05:59;;;;;;;;;;;;;;;;;;5032406;28;19924;-78
2022/07/31 04:08:25;;;;;;;;;;;;;;;;;;5034465;28;19968;-78
2022/07/31 04:10:50;;;;;;;;;;;;;;;;;;5036793;28;19983;-78
2022/07/31 04:13:15;;;;;;;;;;;;;;;;;;5037709;28;19920;-78
2022/07/31 04:15:41;;;;;;;;;;;;;;;;;;5037574;28;19917;-78
2022/07/31 04:18:06;;;;;;;;;;;;;;;;;;5037604;28;19920;-78
2022/07/31 04:20:31;;;;;;;;;;;;;;;;;;5037973;28;19918;-78
2022/07/31 04:22:56;;;;;;;;;;;;;;;;;;5036674;28;19959;-78
2022/07/31 04:25:22;;;;;;;;;;;;;;;;;;5037985;28;20276;-78
2022/07/31 04:27:47;;;;;;;;;;;;;;;;;;5036476;28;20007;-78
2022/07/31 04:30:12;;;;;;;;;;;;;;;;;;5019713;28;19925;-78
2022/07/31 04:32:38;;;;;;;;;;;;;;;;;;5036327;28;19964;-78
2022/07/31 04:35:03;;;;;;;;;;;;;;;;;;5036160;28;19975;-78
2022/07/31 04:37:29;;;;;;;;;;;;;;;;;;5036190;28;19913;-78
2022/07/31 04:39:54;;;;;;;;;;;;;;;;;;5037703;28;19924;-78
2022/07/31 04:42:19;;;;;;;;;;;;;;;;;;5019549;28;19917;-78
2022/07/31 04:44:45;;;;;;;;;;;;;;;;;;5019511;28;19917;-78
2022/07/31 04:47:10;;;;;;;;;;;;;;;;;;5037500;28;20003;-78
2022/07/31 04:49:35;;;;;;;;;;;;;;;;;;5036081;28;19914;-78
2022/07/31 04:52:01;;;;;;;;;;;;;;;;;;5036159;28;19924;-78
2022/07/31 04:54:26;;;;;;;;;;;;;;;;;;5035938;28;19967;-78
2022/07/31 04:56:52;;;;;;;;;;;;;;;;;;5037019;28;20313;-78
2022/07/31 04:59:19;;;;;;;;;;;;;;;;;;5036127;28;19959;-78
2022/07/31 05:01:44;;;;;;;;;;;;;;;;;;5036345;28;19913;-78
2022/07/31 05:04:09;;;;;;;;;;;;;;;;;;5036244;28;19913;-78
2022/07/31 05:06:36;;;;;;;;;;;;;;;;;;5035975;28;19913;-78
2022/07/31 05:09:01;;;;;;;;;;;;;;;;;;5035572;28;20000;-78
2022/07/31 05:11:26;;;;;;;;;;;;;;;;;;5018970;28;19996;-78
2022/07/31 05:13:53;;;;;;;;;;;;;;;;;;5035507;28;20438;-78
2022/07/31 05:16:19;;;;;;;;;;;;;;;;;;5018884;28;19912;-78
2022/07/31 05:18:44;;;;;;;;;;;;;;;;;;5019341;28;20008;-78
2022/07/31 05:21:10;;;;;;;;;;;;;;;;;;5034977;28;19913;-76
2022/07/31 05:23:36;;;;;;;;;;;;;;;;;;5035291;28;19919;-77
2022/07/31 05:26:01;;;;;;;;;;;;;;;;;;5037035;28;20004;-78
2022/07/31 05:28:27;;;;;;;;;;;;;;;;;;5018586;28;20003;-78
2022/07/31 05:30:52;;;;;;;;;;;;;;;;;;5035293;28;19921;-78
2022/07/31 05:33:17;;;;;;;;;;;;;;;;;;5035085;28;19925;-79
2022/07/31 05:35:42;;;;;;;;;;;;;;;;;;5034992;28;19966;-79
2022/07/31 05:38:08;;;;;;;;;;;;;;;;;;5036274;28;19971;-78
2022/07/31 05:40:33;;;;;;;;;;;;;;;;;;5034954;28;19973;-79
2022/07/31 05:42:58;;;;;;;;;;;;;;;;;;5035293;28;20315;-79
2022/07/31 05:45:23;;;;;;;;;;;;;;;;;;5036083;28;19918;-78
2022/07/31 05:47:49;;;;;;;;;;;;;;;;;;5034801;28;20019;-79
2022/07/31 05:50:14;;;;;;;;;;;;;;;;;;5035136;28;19925;-79
2022/07/31 05:52:39;;;;;;;;;;;;;;;;;;5035906;28;19926;-79
2022/07/31 05:55:05;;;;;;;;;;;;;;;;;;5034829;28;19921;-79
2022/07/31 05:57:30;;;;;;;;;;;;;;;;;;5034665;28;20287;-79
2022/07/31 05:59:55;;;;;;;;;;;;;;;;;;5034647;28;19912;-79
2022/07/31 06:02:20;;;;;;;;;;;;;;;;;;5035802;28;19913;-79
2022/07/31 06:04:46;;;;;;;;;;;;;;;;;;5019280;28;19960;-79
2022/07/31 06:07:11;;;;;;;;;;;;;;;;;;5035997;28;19952;-79
2022/07/31 06:09:36;;;;;;;;;;;;;;;;;;5035754;28;19924;-78
2022/07/31 06:12:01;;;;;;;;;;;;;;;;;;5034309;28;19921;-79
2022/07/31 06:14:27;;;;;;;;;;;;;;;;;;5035903;28;19918;-79
2022/07/31 06:16:52;;;;;;;;;;;;;;;;;;5035694;28;20008;-79
2022/07/31 06:19:19;;;;;;;;;;;;;;;;;;5036139;28;19917;-78
2022/07/31 06:21:44;;;;;;;;;;;;;;;;;;5035817;28;19960;-79
2022/07/31 06:24:09;;;;;;;;;;;;;;;;;;5034108;28;19925;-79
2022/07/31 06:26:35;;;;;;;;;;;;;;;;;;5035740;28;19983;-78
2022/07/31 06:29:00;;;;;;;;;;;;;;;;;;5034134;28;20016;-78
2022/07/31 06:31:25;;;;;;;;;;;;;;;;;;5035333;28;19924;-78
2022/07/31 06:33:50;;;;;;;;;;;;;;;;;;5034431;28;20426;-78
2022/07/31 06:36:16;;;;;;;;;;;;;;;;;;5017440;28;19925;-78
2022/07/31 06:38:41;;;;;;;;;;;;;;;;;;5035483;28;19924;-78
2022/07/31 06:41:06;;;;;;;;;;;;;;;;;;5034622;28;19924;-78
2022/07/31 06:43:32;;;;;;;;;;;;;;;;;;5035095;28;20291;-79
2022/07/31 06:45:57;;;;;;;;;;;;;;;;;;5035197;28;19967;-78
2022/07/31 06:48:22;;;;;;;;;;;;;;;;;;5034948;28;19924;-79
2022/07/31 06:50:48;;;;;;;;;;;;;;;;;;5034932;28;19921;-78
2022/07/31 06:53:13;;;;;;;;;;;;;;;;;;5035357;28;19917;-78
2022/07/31 06:55:38;;;;;;;;;;;;;;;;;;5034029;28;19927;-79
2022/07/31 06:58:03;;;;;;;;;;;;;;;;;;5035033;28;19936;-79
2022/07/31 07:00:29;;;;;;;;;;;;;;;;;;5033521;28;20003;-79
2022/07/31 07:02:54;;;;;;;;;;;;;;;;;;5033848;28;20398;-78
2022/07/31 07:05:20;;;;;;;;;;;;;;;;;;5017342;28;19927;-79
2022/07/31 07:07:45;;;;;;;;;;;;;;;;;;5033907;28;19916;-80
2022/07/31 07:10:11;;;;;;;;;;;;;;;;;;5034582;28;20447;-78
2022/07/31 07:12:36;;;;;;;;;;;;;;;;;;5034794;28;19957;-79
2022/07/31 07:15:01;;;;;;;;;;;;;;;;;;5033486;28;19924;-79
2022/07/31 07:17:26;;;;;;;;;;;;;;;;;;5033588;28;19963;-78
2022/07/31 07:19:52;;;;;;;;;;;;;;;;;;5033237;28;19925;-79
2022/07/31 07:22:17;;;;;;;;;;;;;;;;;;5016652;28;20277;-78
2022/07/31 07:24:42;;;;;;;;;;;;;;;;;;5034829;28;19925;-77
2022/07/31 07:27:07;;;;;;;;;;;;;;;;;;5033391;28;20380;-78
2022/07/31 07:29:33;;;;;;;;;;;;;;;;;;5032870;28;19948;-78
2022/07/31 07:31:58;;;;;;;;;;;;;;;;;;5033041;28;20334;-78
2022/07/31 07:34:24;;;;;;;;;;;;;;;;;;5033152;28;19971;-78
2022/07/31 07:36:49;;;;;;;;;;;;;;;;;;5033006;28;19925;-78
2022/07/31 07:39:14;;;;;;;;;;;;;;;;;;5034474;28;20035;-78
2022/07/31 07:41:40;;;;;;;;;;;;;;;;;;5033225;28;19967;-78
2022/07/31 07:44:06;;;;;;;;;;;;;;;;;;5015905;28;19917;-78
2022/07/31 07:46:31;;;;;;;;;;;;;;;;;;5016205;28;19959;-78
2022/07/31 07:48:56;;;;;;;;;;;;;;;;;;5033988;28;19917;-78
2022/07/31 07:51:22;;;;;;;;;;;;;;;;;;5032692;28;19924;-78
2022/07/31 07:53:47;;;;;;;;;;;;;;;;;;5033004;28;20373;-78
2022/07/31 07:56:12;;;;;;;;;;;;;;;;;;5034245;28;19921;-78
2022/07/31 07:58:37;;;;;;;;;;;;;;;;;;5034334;28;20006;-78
2022/07/31 08:01:03;;;;;;;;;;;;;;;;;;5032666;28;19917;-78
2022/07/31 08:03:28;;;;;;;;;;;;;;;;;;5032770;28;19923;-78
2022/07/31 08:05:53;;;;;;;;;;;;;;;;;;5032611;28;19972;-78
2022/07/31 08:08:18;;;;;;;;;;;;;;;;;;5016112;28;19995;-78
2022/07/31 08:10:44;;;;;;;;;;;;;;;;;;5032739;28;20272;-78
2022/07/31 08:13:09;;;;;;;;;;;;;;;;;;5032621;28;19921;-78
2022/07/31 08:15:34;;;;;;;;;;;;;;;;;;5033724;28;19921;-78
2022/07/31 08:18:00;;;;;;;;;;;;;;;;;;5032387;28;19917;-78
2022/07/31 08:20:25;;;;;;;;;;;;;;;;;;5032558;28;19921;-77
2022/07/31 08:22:50;;;;;;;;;;;;;;;;;;5032677;28;19956;-78
2022/07/31 08:25:15;;;;;;;;;;;;;;;;;;5034049;28;20356;-78
2022/07/31 08:27:41;;;;;;;;;;;;;;;;;;5033409;28;19925;-78
2022/07/31 08:30:06;;;;;;;;;;;;;;;;;;5033853;28;19917;-77
2022/07/31 08:32:32;;;;;;;;;;;;;;;;;;5032172;28;19924;-78
2022/07/31 08:34:57;;;;;;;;;;;;;;;;;;5032376;28;19913;-78
2022/07/31 08:37:22;;;;;;;;;;;;;;;;;;5032660;28;19921;-78
2022/07/31 08:39:48;;;;;;;;;;;;;;;;;;5032261;28;19924;-78
2022/07/31 08:42:14;;;;;;;;;;;;;;;;;;5015897;28;19967;-78
2022/07/31 08:44:40;;;;;;;;;;;;;;;;;;5032310;28;19917;-78
2022/07/31 08:47:06;;;;;;;;;;;;;;;;;;5032229;28;19924;-78
2022/07/31 08:49:32;;;;;;;;;;;;;;;;;;5032548;28;19913;-78
2022/07/31 08:51:58;;;;;;;;;;;;;;;;;;5032410;28;20292;-78
2022/07/31 08:54:25;;;;;;;;;;;;;;;;;;5034209;28;19970;-78
2022/07/31 08:56:51;;;;;;;;;;;;;;;;;;5037422;28;19928;-78
2022/07/31 08:59:17;;;;;;;;;;;;;;;;;;5035926;28;19936;-78
2022/07/31 09:01:42;;;;;;;;;;;;;;;;;;5035907;28;19913;-78
2022/07/31 09:04:08;;;;;;;;;;;;;;;;;;5035866;28;20415;-78
2022/07/31 09:06:33;;;;;;;;;;;;;;;;;;5035755;28;19923;-78
2022/07/31 09:08:58;;;;;;;;;;;;;;;;;;5037192;28;19920;-78
2022/07/31 09:11:23;;;;;;;;;;;;;;;;;;5036814;28;19922;-78
2022/07/31 09:13:56;;;;;;;;;;;;;;;;;;5035871;28;19951;-78
2022/07/31 09:16:21;;;;;;;;;;;;;;;;;;5035897;28;20001;-78
2022/07/31 09:18:56;;;;;;;;;;;;;;;;;;5036975;28;19986;-78
2022/07/31 09:21:21;;;;;;;;;;;;;;;;;;5018867;28;19920;-78
2022/07/31 09:23:47;;;;;;;;;;;;;;;;;;5036714;28;19922;-78
2022/07/31 09:26:12;;;;;;;;;;;;;;;;;;5018827;28;19917;-78
2022/07/31 09:28:39;;;;;;;;;;;;;;;;;;5018749;28;19921;-79
2022/07/31 09:31:05;;;;;;;;;;;;;;;;;;5018655;28;19917;-79
2022/07/31 09:33:31;;;;;;;;;;;;;;;;;;5035474;28;19913;-79
2022/07/31 09:35:57;;;;;;;;;;;;;;;;;;5035292;28;19913;-79
2022/07/31 09:38:28;;;;;;;;;;;;;;;;;;5018763;28;19956;-78
2022/07/31 09:40:53;;;;;;;;;;;;;;;;;;5018881;28;20334;-79
2022/07/31 09:43:23;;;;;;;;;;;;;;;;;;5018515;28;20004;-79
2022/07/31 09:46:00;;;;;;;;;;;;;;;;;;5019169;28;19913;-79
2022/07/31 09:48:25;;;;;;;;;;;;;;;;;;5035245;28;19913;-78
2022/07/31 09:50:52;;;;;;;;;;;;;;;;;;5036474;28;20382;-78
2022/07/31 09:53:18;;;;;;;;;;;;;;;;;;5035101;28;20291;-79
2022/07/31 09:55:53;;;;;;;;;;;;;;;;;;5035138;28;20332;-79
2022/07/31 09:58:19;;;;;;;;;;;;;;;;;;5034778;28;20418;-79
2022/07/31 10:00:45;;;;;;;;;;;;;;;;;;5035103;28;19913;-78
2022/07/31 10:03:11;;;;;;;;;;;;;;;;;;5036195;28;19917;-79
2022/07/31 10:05:36;;;;;;;;;;;;;;;;;;5017657;28;19936;-79
2022/07/31 10:08:02;;;;;;;;;;;;;;;;;;5035177;28;19917;-79
2022/07/31 10:10:29;;;;;;;;;;;;;;;;;;5034747;28;19921;-79
2022/07/31 10:12:54;;;;;;;;;;;;;;;;;;5034551;28;19953;-79
2022/07/31 10:15:20;;;;;;;;;;;;;;;;;;5017949;28;20403;-79
2022/07/31 10:17:49;;;;;;;;;;;;;;;;;;5034032;28;19917;-78
2022/07/31 10:20:20;;;;;;;;;;;;;;;;;;5017821;28;20023;-79
2022/07/31 10:22:46;;;;;;;;;;;;;;;;;;5034304;28;19913;-79
2022/07/31 10:25:12;;;;;;;;;;;;;;;;;;5017915;28;20354;-79
2022/07/31 10:27:37;;;;;;;;;;;;;;;;;;5034195;28;19921;-79
2022/07/31 10:30:04;;;;;;;;;;;;;;;;;;5035652;28;20296;-79
2022/07/31 10:32:29;;;;;;;;;;;;;;;;;;5017430;28;19921;-79
2022/07/31 10:34:55;;;;;;;;;;;;;;;;;;5034066;28;19924;-79
2022/07/31 10:37:31;;;;;;;;;;;;;;;;;;5033993;28;19917;-79
2022/07/31 10:39:56;;;;;;;;;;;;;;;;;;5034073;28;19963;-79
2022/07/31 10:42:28;;;;;;;;;;;;;;;;;;5035400;28;20327;-79
2022/07/31 10:45:03;;;;;;;;;;;;;;;;;;5017488;28;19920;-79
2022/07/31 10:47:28;;;;;;;;;;;;;;;;;;5033965;28;19913;-79
2022/07/31 10:49:53;;;;;;;;;;;;;;;;;;5033913;28;19948;-79
2022/07/31 10:52:25;;;;;;;;;;;;;;;;;;5017122;28;19925;-79
2022/07/31 10:54:50;;;;;;;;;;;;;;;;;;5035303;28;19921;-78
2022/07/31 10:57:27;;;;;;;;;;;;;;;;;;5017120;28;19924;-77
2022/07/31 10:59:52;;;;;;;;;;;;;;;;;;5033550;28;20297;-79
2022/07/31 11:02:29;;;;;;;;;;;;;;;;;;5033874;28;20012;-78
2022/07/31 11:05:05;;;;;;;;;;;;;;;;;;5033930;28;20407;-78
2022/07/31 11:07:30;;;;;;;;;;;;;;;;;;5033814;28;20257;-78
2022/07/31 11:10:06;;;;;;;;;;;;;;;;;;5034950;28;19925;-79
2022/07/31 11:12:31;;;;;;;;;;;;;;;;;;5016764;28;19924;-79
2022/07/31 11:14:57;;;;;;;;;;;;;;;;;;5033815;28;19917;-79
2022/07/31 11:17:32;;;;;;;;;;;;;;;;;;5034303;28;19921;-78
2022/07/31 11:19:57;;;;;;;;;;;;;;;;;;5034457;28;19913;-79
2022/07/31 11:22:22;;;;;;;;;;;;;;;;;;5033247;28;19917;-78
2022/07/31 11:24:57;;;;;;;;;;;;;;;;;;5034767;28;19917;-78
2022/07/31 11:27:30;;;;;;;;;;;;;;;;;;5034242;28;19928;-79
2022/07/31 11:30:02;;;;;;;;;;;;;;;;;;5017351;28;20004;-79
2022/07/31 11:32:27;;;;;;;;;;;;;;;;;;5016580;28;19923;-79
2022/07/31 11:34:53;;;;;;;;;;;;;;;;;;5034328;28;19917;-79
2022/07/31 11:37:21;;;;;;;;;;;;;;;;;;5033622;28;19935;-79
2022/07/31 11:39:46;;;;;;;;;;;;;;;;;;5035012;28;19920;-79
2022/07/31 11:42:12;;;;;;;;;;;;;;;;;;5017605;28;19913;-79
2022/07/31 11:44:38;;;;;;;;;;;;;;;;;;5034075;28;19920;-79
2022/07/31 11:47:03;;;;;;;;;;;;;;;;;;5033928;28;19967;-78
2022/07/31 11:49:32;;;;;;;;;;;;;;;;;;5034439;28;19924;-79
2022/07/31 11:52:00;;;;;;;;;;;;;;;;;;5036542;28;19921;-79
2022/07/31 11:54:26;;;;;;;;;;;;;;;;;;5019592;28;19917;-79
2022/07/31 11:56:52;;;;;;;;;;;;;;;;;;5038366;28;19928;-79
2022/07/31 11:59:18;;;;;;;;;;;;;;;;;;5035891;28;19917;-79
2022/07/31 12:01:44;;;;;;;;;;;;;;;;;;5034119;28;20291;-80
2022/07/31 12:04:09;;;;;;;;;;;;;;;;;;5033110;28;19921;-79
2022/07/31 12:06:34;;;;;;;;;;;;;;;;;;5032656;28;19979;-79
2022/07/31 12:08:59;;;;;;;;;;;;;;;;;;5032622;28;19916;-80
2022/07/31 12:11:25;;;;;;;;;;;;;;;;;;5034501;28;19928;-79
2022/07/31 12:13:50;;;;;;;;;;;;;;;;;;5034521;28;20344;-80
2022/07/31 12:16:17;;;;;;;;;;;;;;;;;;5017549;28;19952;-79
2022/07/31 12:18:47;;;;;;;;;;;;;;;;;;5016213;28;19913;-80
2022/07/31 12:21:12;;;;;;;;;;;;;;;;;;5016788;28;19997;-80
2022/07/31 12:23:47;;;;;;;;;;;;;;;;;;5015794;28;20307;-79
2022/07/31 12:26:23;;;;;;;;;;;;;;;;;;5033151;28;20029;-80
2022/07/31 12:28:58;;;;;;;;;;;;;;;;;;5016469;28;19921;-80
2022/07/31 12:31:23;;;;;;;;;;;;;;;;;;5019812;28;19917;-79
2022/07/31 12:33:49;;;;;;;;;;;;;;;;;;5036221;28;19925;-80
2022/07/31 12:36:14;;;;;;;;;;;;;;;;;;5036372;28;19940;-79
2022/07/31 12:38:40;;;;;;;;;;;;;;;;;;5019807;28;19967;-80
2022/07/31 12:41:05;;;;;;;;;;;;;;;;;;5036617;28;19917;-79
2022/07/31 12:43:31;;;;;;;;;;;;;;;;;;5036283;28;19960;-80
2022/07/31 12:45:59;;;;;;;;;;;;;;;;;;5019555;28;19913;-79
2022/07/31 12:48:25;;;;;;;;;;;;;;;;;;5037421;28;19917;-79
2022/07/31 12:50:50;;;;;;;;;;;;;;;;;;5036255;28;19924;-80
2022/07/31 12:53:15;;;;;;;;;;;;;;;;;;5019550;28;19917;-79
2022/07/31 12:55:41;;;;;;;;;;;;;;;;;;5017191;28;19965;-79
2022/07/31 12:58:06;;;;;;;;;;;;;;;;;;5036073;28;20434;-79
2022/07/31 13:00:31;;;;;;;;;;;;;;;;;;5030130;28;19948;-79
2022/07/31 13:02:58;;;;;;;;;;;;;;;;;;5056990;28;20427;-80
2022/07/31 13:05:23;;;;;;;;;;;;;;;;;;5055278;28;19972;-80
2022/07/31 13:07:49;;;;;;;;;;;;;;;;;;5055211;28;20383;-79
2022/07/31 13:10:14;;;;;;;;;;;;;;;;;;5055793;28;19967;-78
2022/07/31 13:12:40;;;;;;;;;;;;;;;;;;5055418;28;19921;-79
2022/07/31 13:15:05;;;;;;;;;;;;;;;;;;5055280;28;20007;-78
2022/07/31 13:17:30;;;;;;;;;;;;;;;;;;5055070;28;19922;-79
2022/07/31 13:19:56;;;;;;;;;;;;;;;;;;5055598;28;20438;-79
2022/07/31 13:22:21;;;;;;;;;;;;;;;;;;5055279;28;19923;-78
2022/07/31 13:24:47;;;;;;;;;;;;;;;;;;5055139;28;19921;-78
2022/07/31 13:27:12;;;;;;;;;;;;;;;;;;5054761;28;20371;-79
2022/07/31 13:29:37;;;;;;;;;;;;;;;;;;5055053;28;19921;-79
2022/07/31 13:32:03;;;;;;;;;;;;;;;;;;5055074;28;20389;-79
2022/07/31 13:34:28;;;;;;;;;;;;;;;;;;5054823;28;19917;-79
2022/07/31 13:36:55;;;;;;;;;;;;;;;;;;5054711;28;20264;-79
2022/07/31 13:39:20;;;;;;;;;;;;;;;;;;5038609;28;19923;-79
2022/07/31 13:41:46;;;;;;;;;;;;;;;;;;5037363;28;19917;-79
2022/07/31 13:44:11;;;;;;;;;;;;;;;;;;5038419;28;19921;-79
2022/07/31 13:46:36;;;;;;;;;;;;;;;;;;5054578;28;19916;-79
2022/07/31 13:49:06;;;;;;;;;;;;;;;;;;5054692;28;19962;-79
2022/07/31 13:51:32;;;;;;;;;;;;;;;;;;5054709;28;20264;-79
2022/07/31 13:53:57;;;;;;;;;;;;;;;;;;5054746;28;19928;-79
2022/07/31 13:56:22;;;;;;;;;;;;;;;;;;5055801;28;20276;-79
2022/07/31 13:58:47;;;;;;;;;;;;;;;;;;5055614;28;19917;-79
2022/07/31 14:01:13;;;;;;;;;;;;;;;;;;5055828;28;20008;-79
2022/07/31 14:03:38;;;;;;;;;;;;;;;;;;5055776;28;19917;-79
2022/07/31 14:06:03;;;;;;;;;;;;;;;;;;5037686;28;19913;-79
2022/07/31 14:08:29;;;;;;;;;;;;;;;;;;5054216;28;19963;-79
2022/07/31 14:10:54;;;;;;;;;;;;;;;;;;5054335;28;19913;-79
2022/07/31 14:13:20;;;;;;;;;;;;;;;;;;5037722;28;19970;-79
2022/07/31 14:15:46;;;;;;;;;;;;;;;;;;5054196;28;20353;-79
2022/07/31 14:18:11;;;;;;;;;;;;;;;;;;5055402;28;19920;-79
2022/07/31 14:20:36;;;;;;;;;;;;;;;;;;5054177;28;20292;-79
2022/07/31 14:23:02;;;;;;;;;;;;;;;;;;5054211;28;19912;-79
2022/07/31 14:25:27;;;;;;;;;;;;;;;;;;5053730;28;19975;-79
2022/07/31 14:27:53;;;;;;;;;;;;;;;;;;5053809;28;19988;-79
2022/07/31 14:30:18;;;;;;;;;;;;;;;;;;5037392;28;19963;-79
2022/07/31 14:32:43;;;;;;;;;;;;;;;;;;5053964;28;19917;-79
2022/07/31 14:35:09;;;;;;;;;;;;;;;;;;5054797;28;20000;-79
2022/07/31 14:37:34;;;;;;;;;;;;;;;;;;5054908;28;20394;-79
2022/07/31 14:40:00;;;;;;;;;;;;;;;;;;5054083;28;19916;-79
2022/07/31 14:42:25;;;;;;;;;;;;;;;;;;5054982;28;19917;-79
2022/07/31 14:44:50;;;;;;;;;;;;;;;;;;5037218;28;19917;-79
2022/07/31 14:47:15;;;;;;;;;;;;;;;;;;5055118;28;19917;-79
2022/07/31 14:49:41;;;;;;;;;;;;;;;;;;5054955;28;19923;-79
2022/07/31 14:52:06;;;;;;;;;;;;;;;;;;5036879;28;20372;-79
2022/07/31 14:54:31;;;;;;;;;;;;;;;;;;5055106;28;19925;-79
2022/07/31 14:57:00;;;;;;;;;;;;;;;;;;5053963;28;19913;-79
2022/07/31 14:59:25;;;;;;;;;;;;;;;;;;5054770;28;19940;-79
2022/07/31 15:01:50;;;;;;;;;;;;;;;;;;5055015;28;19955;-79
2022/07/31 15:04:15;;;;;;;;;;;;;;;;;;5053438;28;19925;-79
2022/07/31 15:06:41;;;;;;;;;;;;;;;;;;5053745;28;19948;-79
2022/07/31 15:09:06;;;;;;;;;;;;;;;;;;5053695;28;20371;-79
2022/07/31 15:11:31;;;;;;;;;;;;;;;;;;5036701;28;19921;-79
2022/07/31 15:13:57;;;;;;;;;;;;;;;;;;5053367;28;20406;-79
2022/07/31 15:16:22;;;;;;;;;;;;;;;;;;5053288;28;19924;-79
2022/07/31 15:18:47;;;;;;;;;;;;;;;;;;5053595;28;19997;-79
2022/07/31 15:21:15;;;;;;;;;;;;;;;;;;5053563;28;20287;-79
2022/07/31 15:23:40;;;;;;;;;;;;;;;;;;5053257;28;19939;-79
2022/07/31 15:26:05;;;;;;;;;;;;;;;;;;5054890;28;20367;-79
2022/07/31 15:28:31;;;;;;;;;;;;;;;;;;5054168;28;20379;-79
2022/07/31 15:30:56;;;;;;;;;;;;;;;;;;5053324;28;19995;-79
2022/07/31 15:33:22;;;;;;;;;;;;;;;;;;5052893;28;20363;-79
2022/07/31 15:35:47;;;;;;;;;;;;;;;;;;5054291;28;19913;-79
2022/07/31 15:38:13;;;;;;;;;;;;;;;;;;5053278;28;19956;-81
2022/07/31 15:40:38;;;;;;;;;;;;;;;;;;5052890;28;20359;-78
2022/07/31 15:43:03;;;;;;;;;;;;;;;;;;5033745;28;19920;-80
2022/07/31 15:45:28;;;;;;;;;;;;;;;;;;5035866;28;20264;-79
2022/07/31 15:47:54;;;;;;;;;;;;;;;;;;5053679;28;19924;-79
2022/07/31 15:50:19;;;;;;;;;;;;;;;;;;5052473;28;19921;-79
2022/07/31 15:52:45;;;;;;;;;;;;;;;;;;5052576;28;20311;-80
2022/07/31 15:55:10;;;;;;;;;;;;;;;;;;5035874;28;19931;-79
2022/07/31 15:57:36;;;;;;;;;;;;;;;;;;5052531;28;20275;-80
2022/07/31 16:00:01;;;;;;;;;;;;;;;;;;5053364;28;19924;-80
2022/07/31 16:02:27;;;;;;;;;;;;;;;;;;5052673;28;19971;-79
2022/07/31 16:04:52;;;;;;;;;;;;;;;;;;5052024;28;19963;-79
2022/07/31 16:07:17;;;;;;;;;;;;;;;;;;5035801;28;19913;-78
2022/07/31 16:09:43;;;;;;;;;;;;;;;;;;5053747;28;19917;-78
2022/07/31 16:12:08;;;;;;;;;;;;;;;;;;5052324;28;19920;-78
2022/07/31 16:14:33;;;;;;;;;;;;;;;;;;5035800;28;19917;-78
2022/07/31 16:16:59;;;;;;;;;;;;;;;;;;5052591;28;19913;-78
2022/07/31 16:19:24;;;;;;;;;;;;;;;;;;5035797;28;19913;-78
2022/07/31 16:21:51;;;;;;;;;;;;;;;;;;5053595;28;20295;-78
2022/07/31 16:24:16;;;;;;;;;;;;;;;;;;5052391;28;19921;-78
2022/07/31 16:26:41;;;;;;;;;;;;;;;;;;5052350;28;19923;-79
2022/07/31 16:29:07;;;;;;;;;;;;;;;;;;5053422;28;19925;-79
2022/07/31 16:31:32;;;;;;;;;;;;;;;;;;5052560;28;19920;-79
2022/07/31 16:33:59;;;;;;;;;;;;;;;;;;5035432;28;20477;-78
2022/07/31 16:36:24;;;;;;;;;;;;;;;;;;5052331;28;19956;-78
2022/07/31 16:38:50;;;;;;;;;;;;;;;;;;5053415;28;20351;-78